Time;durP1;ratioP1;P1;durP2;ratioP2;P2;SDS_P1;SDS_P2;PMS_P1;PMS_P2;Temp;Humidity;BMP_temperature;BMP_pressure;BME280_temperature;BME280_humidity;BME280_pressure;Samples;Min_cycle;Max_cycle;Signal;HPM_P1;HPM_P2
2022/01/08 00:00:48;;;;;;;5.70;3.10;;;8.70;64.20;;;;;;5002217;28;20313;-73
2022/01/08 00:03:17;;;;;;;6.70;3.67;;;8.70;64.10;;;;;;4999049;28;20196;-74
2022/01/08 00:05:46;;;;;;;9.37;4.00;;;8.60;64.00;;;;;;4997724;28;20203;-74
2022/01/08 00:08:15;;;;;;;9.87;3.53;;;8.70;64.00;;;;;;5004959;28;20218;-73
2022/01/08 00:10:43;;;;;;;7.67;3.83;;;8.70;64.20;;;;;;4996027;28;20216;-73
2022/01/08 00:13:12;;;;;;;6.70;3.70;;;8.70;63.90;;;;;;4995597;28;20187;-74
2022/01/08 00:15:41;;;;;;;6.73;3.40;;;8.60;63.80;;;;;;5003589;28;20214;-73
2022/01/08 00:18:09;;;;;;;6.97;3.20;;;8.60;63.90;;;;;;5002836;28;20204;-73
2022/01/08 00:20:37;;;;;;;7.70;3.97;;;8.60;63.90;;;;;;5002231;28;20194;-72
2022/01/08 00:23:06;;;;;;;8.60;4.00;;;8.60;64.20;;;;;;4999919;28;20211;-74
2022/01/08 00:25:34;;;;;;;7.57;3.80;;;8.50;63.90;;;;;;4999335;28;20448;-74
2022/01/08 00:28:02;;;;;;;6.10;3.20;;;8.60;64.20;;;;;;4999485;28;20230;-73
2022/01/08 00:30:32;;;;;;;8.60;4.40;;;8.50;63.90;;;;;;5002095;28;20194;-73
2022/01/08 00:33:01;;;;;;;7.10;4.53;;;8.40;64.10;;;;;;5002524;28;20199;-74
2022/01/08 00:35:29;;;;;;;7.00;4.07;;;8.40;64.40;;;;;;5001771;28;20273;-74
2022/01/08 00:37:58;;;;;;;8.33;4.37;;;8.40;64.70;;;;;;5001667;28;20195;-73
2022/01/08 00:40:26;;;;;;;7.73;4.27;;;8.40;64.80;;;;;;4998007;28;20199;-74
2022/01/08 00:42:54;;;;;;;6.13;3.60;;;8.40;64.90;;;;;;4993801;28;20233;-73
2022/01/08 00:45:22;;;;;;;10.53;4.47;;;8.40;65.10;;;;;;4993224;28;20203;-75
2022/01/08 00:47:52;;;;;;;8.13;3.73;;;8.40;65.20;;;;;;5000955;28;20226;-74
2022/01/08 00:50:21;;;;;;;7.50;3.63;;;8.40;65.30;;;;;;5000262;28;20200;-73
2022/01/08 00:52:50;;;;;;;6.97;4.20;;;8.40;65.40;;;;;;5000965;28;20199;-73
2022/01/08 00:55:18;;;;;;;9.13;4.20;;;8.40;65.50;;;;;;5004625;28;20780;-74
2022/01/08 00:57:46;;;;;;;7.70;4.27;;;8.40;65.70;;;;;;5002068;28;20198;-73
2022/01/08 01:00:15;;;;;;;7.57;3.93;;;8.40;65.80;;;;;;5001759;28;20207;-73
2022/01/08 01:02:43;;;;;;;8.30;4.03;;;8.40;66.00;;;;;;4999826;28;20198;-73
2022/01/08 01:05:13;;;;;;;8.27;4.67;;;8.30;66.30;;;;;;4999327;28;20258;-73
2022/01/08 01:07:42;;;;;;;7.50;3.83;;;8.30;66.40;;;;;;5002152;28;20196;-73
2022/01/08 01:10:11;;;;;;;9.17;4.23;;;8.30;66.50;;;;;;5001833;28;20224;-74
2022/01/08 01:12:40;;;;;;;8.50;4.33;;;8.30;67.30;;;;;;4999611;28;20196;-73
2022/01/08 01:15:11;;;;;;;7.33;4.17;;;8.30;67.00;;;;;;4995806;28;20187;-73
2022/01/08 01:17:40;;;;;;;10.40;4.53;;;8.30;67.10;;;;;;5001232;28;20191;-75
2022/01/08 01:20:10;;;;;;;8.27;3.83;;;8.30;67.60;;;;;;4998718;28;20205;-73
2022/01/08 01:22:47;;;;;;;8.13;4.10;;;8.30;67.60;;;;;;5001164;28;20204;-73
2022/01/08 01:25:20;;;;;;;7.77;3.90;;;8.30;67.60;;;;;;4999127;28;20206;-73
2022/01/08 01:28:06;;;;;;;7.37;4.30;;;8.30;67.90;;;;;;4994169;28;20194;-73
2022/01/08 01:41:51;;;;;;;9.03;4.80;;;8.30;69.90;;;;;;5003220;28;20200;-73
2022/01/08 01:47:06;;;;;;;8.93;3.80;;;8.20;69.80;;;;;;4999164;28;20914;-74
2022/01/08 01:49:36;;;;;;;6.23;3.60;;;8.20;70.20;;;;;;5000966;28;20230;-73
2022/01/08 01:52:06;;;;;;;9.17;3.90;;;8.10;70.20;;;;;;5001737;28;20692;-74
2022/01/08 01:54:36;;;;;;;8.63;3.97;;;8.20;70.50;;;;;;4997788;28;20202;-74
2022/01/08 01:57:07;;;;;;;12.50;4.37;;;8.20;70.40;;;;;;5001736;28;20189;-74
2022/01/08 01:59:37;;;;;;;9.37;4.20;;;8.30;70.60;;;;;;5000433;28;20198;-74
2022/01/08 02:02:06;;;;;;;9.33;4.33;;;8.20;70.90;;;;;;4996616;28;20329;-73
2022/01/08 02:04:34;;;;;;;7.63;3.93;;;8.20;71.10;;;;;;4997302;28;20637;-74
2022/01/08 02:07:04;;;;;;;7.43;4.30;;;8.20;71.10;;;;;;4995924;28;20206;-73
2022/01/08 02:09:36;;;;;;;8.93;4.20;;;8.20;71.10;;;;;;4996893;28;20238;-74
2022/01/08 02:12:10;;;;;;;7.30;4.00;;;8.20;71.30;;;;;;4997168;28;20729;-74
2022/01/08 02:14:39;;;;;;;9.13;4.47;;;8.10;71.60;;;;;;4991434;28;20205;-74
2022/01/08 02:17:09;;;;;;;7.83;4.07;;;8.20;72.10;;;;;;4990986;28;20188;-74
2022/01/08 02:19:38;;;;;;;12.20;4.73;;;8.10;72.10;;;;;;4999199;28;20261;-74
2022/01/08 02:22:15;;;;;;;10.00;4.23;;;8.10;72.30;;;;;;4997753;28;20217;-73
2022/01/08 02:24:46;;;;;;;10.80;4.43;;;8.10;72.50;;;;;;4997557;28;20191;-73
2022/01/08 02:27:14;;;;;;;8.87;4.30;;;8.00;72.50;;;;;;4994497;28;20194;-74
2022/01/08 02:29:43;;;;;;;9.93;4.80;;;8.00;72.80;;;;;;5000439;28;20855;-74
2022/01/08 02:32:15;;;;;;;8.73;4.00;;;8.00;73.00;;;;;;4999967;28;20198;-74
2022/01/08 02:34:45;;;;;;;10.73;5.27;;;8.00;72.80;;;;;;4996788;28;20191;-73
2022/01/08 02:37:17;;;;;;;9.20;4.47;;;7.90;73.40;;;;;;5001021;28;20205;-73
2022/01/08 02:39:49;;;;;;;8.73;4.60;;;7.90;73.40;;;;;;4996222;28;20205;-74
2022/01/08 02:42:19;;;;;;;8.00;4.37;;;7.90;73.80;;;;;;5000944;28;21042;-73
2022/01/08 02:44:49;;;;;;;8.60;4.43;;;7.90;74.30;;;;;;4988782;28;20235;-73
2022/01/08 02:47:21;;;;;;;9.67;4.83;;;7.90;74.60;;;;;;4992406;28;20292;-74
2022/01/08 02:49:52;;;;;;;8.13;4.80;;;7.80;74.60;;;;;;4993456;28;20210;-73
2022/01/08 02:52:23;;;;;;;8.60;4.60;;;7.80;74.70;;;;;;5001724;28;20196;-73
2022/01/08 02:54:52;;;;;;;8.23;4.50;;;7.80;74.70;;;;;;4998807;28;20916;-74
2022/01/08 02:57:20;;;;;;;11.15;5.72;;;7.80;75.20;;;;;;5001381;28;20491;-74
2022/01/08 02:59:49;;;;;;;8.93;5.13;;;7.80;75.20;;;;;;5001159;28;20205;-74
2022/01/08 03:02:17;;;;;;;9.77;4.90;;;7.70;75.60;;;;;;5001067;28;20198;-74
2022/01/08 03:04:49;;;;;;;10.73;5.60;;;7.70;76.20;;;;;;4999077;28;20202;-75
2022/01/08 03:07:18;;;;;;;11.07;5.03;;;7.70;76.20;;;;;;4997185;28;20210;-74
2022/01/08 03:09:56;;;;;;;7.60;4.40;;;7.70;76.20;;;;;;5002582;28;20234;-74
2022/01/08 03:12:26;;;;;;;9.27;4.80;;;7.60;76.60;;;;;;5002189;28;20198;-74
2022/01/08 03:14:55;;;;;;;10.57;5.27;;;7.70;76.60;;;;;;5000528;28;20203;-74
2022/01/08 03:17:23;;;;;;;10.33;5.00;;;7.70;76.50;;;;;;4998635;28;20206;-74
2022/01/08 03:19:53;;;;;;;9.57;4.90;;;7.70;76.30;;;;;;4997525;28;20210;-74
2022/01/08 03:22:21;;;;;;;9.63;5.67;;;7.70;76.40;;;;;;5000918;28;20210;-74
2022/01/08 03:24:51;;;;;;;11.83;4.90;;;7.70;76.50;;;;;;4999559;28;20203;-74
2022/01/08 03:27:19;;;;;;;12.50;5.03;;;7.70;77.10;;;;;;4998865;28;20194;-74
2022/01/08 03:29:48;;;;;;;8.87;5.27;;;7.70;77.50;;;;;;4995780;28;20233;-74
2022/01/08 03:32:16;;;;;;;7.70;4.57;;;7.70;77.30;;;;;;4998948;28;20621;-74
2022/01/08 03:34:45;;;;;;;9.33;5.20;;;7.60;77.40;;;;;;4998414;28;20217;-74
2022/01/08 03:37:13;;;;;;;9.83;5.23;;;7.60;77.40;;;;;;4996095;28;20203;-74
2022/01/08 03:39:42;;;;;;;9.27;5.23;;;7.60;78.10;;;;;;4999473;28;20844;-74
2022/01/08 03:42:12;;;;;;;10.80;5.67;;;7.60;77.90;;;;;;5003483;28;20193;-73
2022/01/08 03:44:40;;;;;;;11.93;5.80;;;7.60;78.40;;;;;;5006563;28;20204;-72
2022/01/08 03:47:28;;;;;;;12.03;5.33;;;7.60;78.20;;;;;;5003140;28;20194;-73
2022/01/08 03:49:58;;;;;;;9.53;5.27;;;7.50;78.40;;;;;;4996703;28;20788;-72
2022/01/08 03:52:26;;;;;;;9.93;5.00;;;7.50;78.30;;;;;;4996266;28;20201;-72
2022/01/08 03:54:55;;;;;;;11.80;5.40;;;7.50;78.60;;;;;;5003928;28;20839;-73
2022/01/08 03:57:24;;;;;;;8.53;4.93;;;7.50;78.60;;;;;;5004317;28;20203;-73
2022/01/08 03:59:52;;;;;;;11.23;5.17;;;7.50;78.70;;;;;;5002407;28;20193;-74
2022/01/08 04:02:21;;;;;;;10.80;5.07;;;7.50;78.80;;;;;;4994573;28;20232;-73
2022/01/08 04:04:49;;;;;;;9.90;5.43;;;7.50;79.20;;;;;;5002266;28;20674;-73
2022/01/08 04:07:17;;;;;;;8.83;4.73;;;7.50;79.10;;;;;;4999284;28;20202;-73
2022/01/08 04:09:45;;;;;;;12.27;5.83;;;7.40;79.00;;;;;;5003401;28;20295;-72
2022/01/08 04:12:19;;;;;;;11.87;5.53;;;7.40;80.10;;;;;;5001092;28;20201;-74
2022/01/08 04:14:55;;;;;;;10.00;5.07;;;7.40;79.60;;;;;;5000494;28;20195;-72
2022/01/08 04:17:23;;;;;;;9.80;5.40;;;7.40;79.90;;;;;;4994502;28;20203;-73
2022/01/08 04:19:51;;;;;;;11.67;6.27;;;7.30;80.00;;;;;;4993961;28;20246;-73
2022/01/08 04:22:19;;;;;;;12.23;5.73;;;7.30;80.20;;;;;;4996111;28;20203;-72
2022/01/08 04:24:48;;;;;;;11.53;5.50;;;7.30;80.30;;;;;;5001215;28;20713;-72
2022/01/08 04:27:16;;;;;;;12.67;6.63;;;7.30;80.50;;;;;;5001337;28;20199;-73
2022/01/08 04:29:44;;;;;;;10.70;5.67;;;7.20;80.80;;;;;;5002174;28;20240;-73
2022/01/08 04:32:14;;;;;;;10.77;6.00;;;7.10;80.70;;;;;;5002380;28;20207;-72
2022/01/08 04:34:42;;;;;;;10.63;6.07;;;7.10;80.50;;;;;;5002493;28;20773;-73
2022/01/08 04:37:11;;;;;;;10.90;5.53;;;7.10;80.70;;;;;;5002163;28;20234;-73
2022/01/08 04:39:39;;;;;;;11.60;6.20;;;7.10;80.90;;;;;;5002824;28;20624;-72
2022/01/08 04:42:08;;;;;;;12.73;5.80;;;7.10;81.10;;;;;;4998801;28;20697;-72
2022/01/08 04:44:36;;;;;;;13.87;5.77;;;7.10;81.00;;;;;;5002193;28;20196;-73
2022/01/08 04:47:05;;;;;;;13.00;6.60;;;7.10;81.40;;;;;;4999119;28;20472;-73
2022/01/08 04:49:35;;;;;;;11.73;5.97;;;7.10;81.70;;;;;;5001168;28;20768;-72
2022/01/08 04:52:04;;;;;;;14.77;6.20;;;7.00;82.00;;;;;;4993577;28;20192;-73
2022/01/08 04:54:32;;;;;;;10.20;5.63;;;7.00;82.20;;;;;;5003306;28;20226;-73
2022/01/08 04:57:00;;;;;;;11.30;5.90;;;7.00;82.00;;;;;;5001403;28;20231;-73
2022/01/08 04:59:29;;;;;;;10.07;5.93;;;7.00;81.80;;;;;;5000262;28;20213;-73
2022/01/08 05:01:57;;;;;;;12.93;6.77;;;7.00;82.20;;;;;;5001279;28;20193;-74
2022/01/08 05:04:26;;;;;;;12.27;6.23;;;7.00;82.00;;;;;;4998429;28;20199;-74
2022/01/08 05:06:56;;;;;;;10.23;6.07;;;7.10;82.00;;;;;;5001233;28;20201;-74
2022/01/08 05:09:25;;;;;;;9.17;5.07;;;7.10;82.20;;;;;;5000445;28;20193;-74
2022/01/08 05:11:53;;;;;;;10.57;5.40;;;7.10;82.20;;;;;;4962815;28;20626;-74
2022/01/08 05:14:22;;;;;;;13.27;5.63;;;7.10;82.30;;;;;;4960514;28;20204;-74
2022/01/08 05:16:57;;;;;;;11.30;5.30;;;7.10;82.30;;;;;;4961100;28;20199;-74
2022/01/08 05:19:37;;;;;;;12.37;5.37;;;7.10;82.50;;;;;;4952317;28;20198;-75
2022/01/08 05:22:09;;;;;;;9.60;5.57;;;7.10;82.40;;;;;;4954486;28;20270;-74
2022/01/08 05:24:37;;;;;;;9.37;6.03;;;7.10;82.50;;;;;;4960375;28;20195;-74
2022/01/08 05:27:08;;;;;;;9.70;5.60;;;7.10;82.30;;;;;;4964564;28;20223;-74
2022/01/08 05:29:37;;;;;;;11.57;5.43;;;7.10;82.50;;;;;;4962827;28;20198;-75
2022/01/08 05:32:05;;;;;;;10.17;5.83;;;7.10;82.50;;;;;;4972376;28;20230;-75
2022/01/08 05:34:34;;;;;;;10.80;5.17;;;7.10;82.30;;;;;;4963218;28;20202;-74
2022/01/08 05:37:02;;;;;;;11.77;5.73;;;7.10;82.50;;;;;;4962681;28;20198;-76
2022/01/08 05:39:32;;;;;;;11.10;5.90;;;7.20;82.30;;;;;;4962626;28;20196;-74
2022/01/08 05:42:00;;;;;;;9.80;5.67;;;7.10;82.30;;;;;;4960473;28;20214;-75
2022/01/08 05:44:28;;;;;;;9.10;5.23;;;7.10;82.30;;;;;;4963205;28;20602;-75
2022/01/08 05:46:56;;;;;;;8.17;6.07;;;7.10;82.20;;;;;;4963133;28;20269;-75
2022/01/08 05:49:25;;;;;;;10.80;6.03;;;7.10;82.30;;;;;;4958995;28;20198;-74
2022/01/08 05:51:53;;;;;;;8.47;5.23;;;7.10;82.20;;;;;;4952913;28;20227;-75
2022/01/08 05:54:21;;;;;;;8.60;4.70;;;7.10;82.50;;;;;;4958360;28;20198;-75
2022/01/08 05:56:51;;;;;;;9.73;5.27;;;7.10;82.80;;;;;;4961008;28;20200;-75
2022/01/08 05:59:21;;;;;;;8.43;4.97;;;7.10;82.70;;;;;;4962797;28;20199;-75
2022/01/08 06:01:50;;;;;;;9.97;5.47;;;7.10;82.90;;;;;;4959485;28;20792;-75
2022/01/08 06:04:18;;;;;;;11.57;5.53;;;7.00;83.00;;;;;;4962097;28;20194;-74
2022/01/08 06:06:46;;;;;;;11.23;5.27;;;7.10;82.90;;;;;;4963659;28;20232;-75
2022/01/08 06:09:15;;;;;;;11.87;5.47;;;7.10;83.00;;;;;;4964153;28;21181;-77
2022/01/08 06:11:43;;;;;;;8.17;5.30;;;7.00;83.20;;;;;;4998048;28;20224;-75
2022/01/08 06:14:13;;;;;;;9.33;5.00;;;7.00;83.20;;;;;;4999177;28;20704;-76
2022/01/08 06:16:41;;;;;;;9.30;5.33;;;7.00;83.10;;;;;;5000259;28;20192;-76
2022/01/08 06:19:11;;;;;;;10.60;6.10;;;7.00;83.00;;;;;;4997253;28;20189;-77
2022/01/08 06:21:39;;;;;;;9.43;5.20;;;7.00;83.30;;;;;;4991590;28;20201;-77
2022/01/08 06:24:14;;;;;;;10.40;5.53;;;7.00;83.30;;;;;;4991553;28;20455;-78
2022/01/08 06:26:42;;;;;;;10.60;5.83;;;7.00;83.40;;;;;;5000701;28;20193;-77
2022/01/08 06:29:12;;;;;;;10.23;5.50;;;7.00;83.50;;;;;;5001675;28;20189;-78
2022/01/08 06:31:40;;;;;;;10.10;5.80;;;7.00;83.60;;;;;;5002266;28;20228;-77
2022/01/08 06:34:08;;;;;;;10.47;5.53;;;7.00;83.50;;;;;;5001940;28;20224;-78
2022/01/08 06:36:37;;;;;;;10.23;5.43;;;7.00;83.50;;;;;;5003521;28;20312;-79
2022/01/08 06:39:05;;;;;;;10.60;4.90;;;7.00;83.50;;;;;;4999897;28;21038;-78
2022/01/08 06:41:33;;;;;;;8.10;4.70;;;7.00;83.40;;;;;;4991464;28;20211;-78
2022/01/08 06:44:02;;;;;;;9.53;5.10;;;7.00;83.60;;;;;;5004075;28;20193;-77
2022/01/08 06:46:32;;;;;;;7.27;4.37;;;7.00;83.60;;;;;;5002857;28;20196;-77
2022/01/08 06:49:00;;;;;;;10.50;4.97;;;7.00;83.80;;;;;;5001811;28;20284;-79
2022/01/08 06:51:29;;;;;;;9.47;5.23;;;7.00;83.60;;;;;;5005309;28;20259;-77
2022/01/08 06:53:57;;;;;;;10.37;5.33;;;7.00;83.90;;;;;;5005253;28;20204;-77
2022/01/08 06:56:25;;;;;;;9.87;5.40;;;7.00;84.20;;;;;;5004570;28;20196;-77
2022/01/08 06:58:55;;;;;;;9.93;5.20;;;7.00;84.20;;;;;;5004269;28;20196;-77
2022/01/08 07:01:23;;;;;;;10.00;5.70;;;7.00;84.40;;;;;;5005460;28;20561;-77
2022/01/08 07:03:55;;;;;;;9.47;5.57;;;7.00;84.30;;;;;;4997361;28;20199;-77
2022/01/08 07:06:23;;;;;;;7.80;5.07;;;7.00;84.20;;;;;;4992910;28;20191;-76
2022/01/08 07:08:54;;;;;;;10.43;5.10;;;7.10;84.20;;;;;;5002091;28;20522;-75
2022/01/08 07:11:22;;;;;;;9.20;5.33;;;7.10;84.10;;;;;;5003833;28;20230;-76
2022/01/08 07:13:50;;;;;;;8.27;4.83;;;7.10;84.20;;;;;;5004571;28;20223;-75
2022/01/08 07:16:19;;;;;;;8.10;5.17;;;7.20;84.00;;;;;;5005330;28;20708;-76
2022/01/08 07:18:47;;;;;;;11.50;6.28;;;7.20;84.00;;;;;;5007117;28;20447;-76
2022/01/08 07:21:16;;;;;;;9.87;5.50;;;7.20;84.10;;;;;;5007225;28;20207;-76
2022/01/08 07:23:45;;;;;;;11.53;6.03;;;7.20;84.10;;;;;;5006141;28;20190;-75
2022/01/08 07:26:13;;;;;;;11.50;5.53;;;7.20;83.90;;;;;;5004735;28;20196;-75
2022/01/08 07:28:41;;;;;;;12.10;6.80;;;7.20;83.90;;;;;;5007394;28;20440;-75
2022/01/08 07:31:09;;;;;;;11.30;6.47;;;7.10;84.00;;;;;;5006878;28;20205;-74
2022/01/08 07:33:38;;;;;;;9.77;6.10;;;7.10;84.20;;;;;;5003060;28;20209;-76
2022/01/08 07:36:06;;;;;;;10.47;5.60;;;7.20;84.00;;;;;;5001570;28;20198;-76
2022/01/08 07:38:36;;;;;;;8.80;5.40;;;7.20;83.90;;;;;;5004273;28;20186;-76
2022/01/08 07:41:04;;;;;;;11.97;5.47;;;7.20;83.90;;;;;;5005103;28;20244;-76
2022/01/08 07:43:32;;;;;;;9.40;5.50;;;7.20;83.90;;;;;;5007370;28;20217;-76
2022/01/08 07:46:00;;;;;;;10.80;5.73;;;7.10;83.80;;;;;;5004347;28;20224;-76
2022/01/08 07:48:29;;;;;;;10.63;5.37;;;7.10;83.70;;;;;;5006841;28;20205;-75
2022/01/08 07:50:58;;;;;;;10.47;6.50;;;7.10;83.80;;;;;;5004449;28;20198;-76
2022/01/08 07:53:26;;;;;;;9.17;5.43;;;7.10;83.90;;;;;;5005316;28;20225;-77
2022/01/08 07:55:56;;;;;;;10.43;5.70;;;7.10;83.70;;;;;;5003257;28;20196;-76
2022/01/08 07:58:24;;;;;;;10.60;5.67;;;7.10;83.80;;;;;;5004949;28;20639;-76
2022/01/08 08:00:53;;;;;;;9.20;6.07;;;7.10;83.80;;;;;;5005363;28;20196;-80
2022/01/08 08:03:22;;;;;;;12.10;6.70;;;7.10;83.90;;;;;;4996774;28;20816;-78
2022/01/08 08:05:50;;;;;;;13.37;7.37;;;7.10;84.00;;;;;;4994390;28;20213;-75
2022/01/08 08:08:20;;;;;;;10.00;6.43;;;7.10;84.00;;;;;;5003890;28;20241;-75
2022/01/08 08:10:50;;;;;;;14.97;6.93;;;7.10;84.20;;;;;;5005959;28;20639;-74
2022/01/08 08:13:23;;;;;;;9.43;5.53;;;7.10;84.20;;;;;;5006057;28;20691;-75
2022/01/08 08:15:51;;;;;;;12.82;7.55;;;7.10;84.20;;;;;;5005102;28;20444;-76
2022/01/08 08:18:19;;;;;;;13.30;7.37;;;7.00;84.70;;;;;;5004774;28;20194;-74
2022/01/08 08:20:48;;;;;;;11.97;6.57;;;7.10;84.80;;;;;;5005303;28;20237;-74
2022/01/08 08:23:16;;;;;;;11.33;6.70;;;7.10;84.80;;;;;;5006214;28;20207;-75
2022/01/08 08:25:44;;;;;;;17.33;8.40;;;7.10;84.90;;;;;;4998854;28;20193;-75
2022/01/08 08:28:12;;;;;;;15.00;8.43;;;7.10;84.70;;;;;;4998696;28;20193;-75
2022/01/08 08:30:42;;;;;;;12.23;6.97;;;7.10;84.60;;;;;;5005050;28;20185;-73
2022/01/08 08:33:11;;;;;;;13.50;6.93;;;7.10;84.50;;;;;;5004720;28;20226;-75
2022/01/08 08:35:39;;;;;;;13.00;7.33;;;7.20;84.50;;;;;;5005081;28;20796;-75
2022/01/08 08:38:07;;;;;;;12.23;6.73;;;7.20;84.50;;;;;;5005308;28;20192;-75
2022/01/08 08:40:35;;;;;;;11.17;6.47;;;7.20;84.40;;;;;;5005610;28;20196;-76
2022/01/08 08:43:04;;;;;;;11.90;7.27;;;7.20;84.40;;;;;;5004716;28;20247;-74
2022/01/08 08:45:32;;;;;;;13.80;8.27;;;7.20;84.40;;;;;;5004638;28;20245;-74
2022/01/08 08:48:02;;;;;;;10.87;6.77;;;7.20;84.40;;;;;;5003903;28;20763;-75
2022/01/08 08:50:30;;;;;;;14.63;8.10;;;7.30;84.30;;;;;;5005324;28;20190;-75
2022/01/08 08:52:58;;;;;;;11.83;6.90;;;7.30;84.10;;;;;;5004674;28;20356;-74
2022/01/08 08:55:26;;;;;;;15.05;8.35;;;7.20;84.10;;;;;;5002802;28;20941;-76
2022/01/08 08:57:55;;;;;;;13.83;8.73;;;7.20;84.30;;;;;;5003376;28;20190;-75
2022/01/08 09:00:23;;;;;;;12.83;7.47;;;7.20;84.50;;;;;;5004447;28;20190;-75
2022/01/08 09:02:55;;;;;;;12.57;6.77;;;7.20;84.40;;;;;;5004247;28;20702;-75
2022/01/08 09:05:25;;;;;;;14.17;8.20;;;7.10;84.20;;;;;;5004353;28;20189;-74
2022/01/08 09:07:54;;;;;;;15.35;9.05;;;7.10;84.50;;;;;;4996380;28;20435;-75
2022/01/08 09:10:25;;;;;;;18.93;9.03;;;7.10;85.70;;;;;;5004194;28;20252;-76
2022/01/08 09:12:54;;;;;;;16.27;8.80;;;7.10;84.90;;;;;;5004228;28;20216;-76
2022/01/08 09:15:25;;;;;;;17.57;8.37;;;7.20;84.80;;;;;;5004088;28;20196;-74
2022/01/08 09:17:56;;;;;;;14.57;8.27;;;7.10;84.70;;;;;;5003147;28;20199;-76
2022/01/08 09:20:28;;;;;;;12.97;7.23;;;7.10;84.50;;;;;;5004720;28;20184;-76
2022/01/08 09:22:56;;;;;;;12.80;7.47;;;7.20;84.70;;;;;;5003480;28;20639;-76
2022/01/08 09:25:25;;;;;;;13.37;7.03;;;7.20;84.70;;;;;;5003071;28;20228;-75
2022/01/08 09:27:53;;;;;;;13.93;7.47;;;7.20;84.40;;;;;;5003835;28;20199;-77
2022/01/08 09:30:22;;;;;;;14.33;7.50;;;7.30;84.60;;;;;;5004099;28;20204;-76
2022/01/08 09:32:50;;;;;;;13.63;7.23;;;7.30;84.40;;;;;;5003919;28;20220;-77
2022/01/08 09:35:19;;;;;;;14.93;7.17;;;7.30;84.40;;;;;;5004225;28;20198;-78
2022/01/08 09:37:49;;;;;;;15.40;8.03;;;7.30;84.20;;;;;;5002829;28;20180;-79
2022/01/08 09:40:19;;;;;;;15.30;8.13;;;7.20;84.20;;;;;;5002640;28;20181;-77
2022/01/08 09:42:47;;;;;;;13.63;8.68;;;7.20;84.10;;;;;;5001135;28;20444;-76
2022/01/08 09:45:16;;;;;;;14.47;8.00;;;7.20;84.70;;;;;;5001704;28;20212;-76
2022/01/08 09:47:44;;;;;;;11.43;7.47;;;7.30;84.90;;;;;;4997651;28;20198;-76
2022/01/08 09:50:13;;;;;;;14.93;7.73;;;7.30;85.10;;;;;;5000610;28;20249;-76
2022/01/08 09:52:41;;;;;;;12.10;7.17;;;7.30;85.20;;;;;;4985046;28;20226;-75
2022/01/08 09:55:11;;;;;;;15.23;7.57;;;7.20;85.00;;;;;;4991197;28;20940;-75
2022/01/08 09:57:40;;;;;;;15.60;8.30;;;7.20;85.10;;;;;;5003291;28;20192;-76
2022/01/08 10:00:14;;;;;;;14.13;7.43;;;7.20;85.50;;;;;;5003385;28;20202;-76
2022/01/08 10:02:44;;;;;;;13.43;7.20;;;7.10;86.30;;;;;;5005396;28;20189;-75
2022/01/08 10:05:15;;;;;;;14.40;7.77;;;7.20;86.00;;;;;;5004278;28;20187;-75
2022/01/08 10:07:44;;;;;;;14.87;8.33;;;7.20;85.70;;;;;;5003863;28;20189;-76
2022/01/08 10:10:15;;;;;;;18.23;8.80;;;7.20;85.80;;;;;;5004534;28;20224;-76
2022/01/08 10:12:52;;;;;;;14.77;8.10;;;7.10;85.90;;;;;;5004643;28;20931;-75
2022/01/08 10:18:23;;;;;;;17.20;8.87;;;7.10;85.80;;;;;;5004051;28;20639;-76
2022/01/08 10:20:52;;;;;;;15.23;8.20;;;7.20;86.70;;;;;;5003786;28;20185;-75
2022/01/08 10:23:22;;;;;;;16.20;8.87;;;7.20;86.40;;;;;;4984729;28;20630;-75
2022/01/08 10:26:02;;;;;;;20.73;9.70;;;7.10;86.90;;;;;;5003211;28;20192;-75
2022/01/08 10:28:39;;;;;;;17.83;9.07;;;7.10;86.30;;;;;;5001663;28;20194;-75
2022/01/08 10:31:13;;;;;;;19.70;9.30;;;7.10;86.60;;;;;;4998033;28;20783;-75
2022/01/08 10:33:43;;;;;;;17.00;9.53;;;7.10;86.50;;;;;;4998933;28;20239;-75
2022/01/08 10:36:13;;;;;;;16.20;8.87;;;7.10;86.50;;;;;;4998378;28;20588;-73
2022/01/08 10:38:42;;;;;;;19.17;9.03;;;7.10;86.50;;;;;;5001705;28;20188;-73
2022/01/08 10:41:16;;;;;;;19.65;10.95;;;7.10;86.60;;;;;;5001382;28;20475;-72
2022/01/08 10:43:45;;;;;;;16.07;9.00;;;7.10;86.90;;;;;;5001702;28;20212;-72
2022/01/08 10:46:15;;;;;;;18.43;9.23;;;7.20;86.80;;;;;;5002157;28;20960;-73
2022/01/08 10:48:46;;;;;;;18.10;8.63;;;7.20;86.60;;;;;;5003294;28;20190;-72
2022/01/08 10:51:22;;;;;;;24.43;10.13;;;7.20;86.40;;;;;;5002766;28;20183;-72
2022/01/08 10:53:52;;;;;;;18.30;9.77;;;7.30;86.50;;;;;;5001250;28;20218;-72
2022/01/08 10:56:36;;;;;;;17.57;10.17;;;7.30;87.00;;;;;;5002569;28;20190;-74
2022/01/08 10:59:11;;;;;;;15.93;8.30;;;7.30;86.80;;;;;;4998475;28;20191;-74
2022/01/08 11:01:48;;;;;;;16.23;8.50;;;7.30;87.20;;;;;;5002187;28;20198;-74
2022/01/08 11:04:18;;;;;;;14.47;8.03;;;7.30;87.50;;;;;;5002291;28;20183;-78
2022/01/08 11:06:52;;;;;;;15.30;8.30;;;7.20;87.50;;;;;;5000714;28;20263;-77
2022/01/08 11:09:21;;;;;;;17.70;10.00;;;7.30;87.50;;;;;;4996738;28;20191;-76
2022/01/08 11:11:52;;;;;;;18.53;8.97;;;7.30;87.20;;;;;;5012159;28;20772;-77
2022/01/08 11:14:45;;;;;;;21.13;11.03;;;7.30;86.90;;;;;;5021820;28;20219;-76
2022/01/08 11:17:15;;;;;;;24.20;10.77;;;7.30;87.50;;;;;;5021167;28;20212;-76
2022/01/08 11:19:45;;;;;;;21.53;10.47;;;7.20;87.30;;;;;;5023310;28;20192;-76
2022/01/08 11:22:17;;;;;;;19.90;11.57;;;7.30;87.30;;;;;;5020069;28;20182;-77
2022/01/08 11:24:53;;;;;;;25.93;11.13;;;7.40;87.10;;;;;;5020696;28;20174;-77
2022/01/08 11:27:25;;;;;;;19.40;11.13;;;7.40;87.00;;;;;;5017636;28;20686;-78
2022/01/08 11:30:03;;;;;;;17.40;9.83;;;7.40;86.90;;;;;;5019858;28;20198;-78
2022/01/08 11:32:33;;;;;;;16.47;8.60;;;7.40;86.90;;;;;;5022084;28;20188;-78
2022/01/08 11:35:22;;;;;;;16.13;8.63;;;7.30;86.90;;;;;;5021866;28;20626;-78
2022/01/08 11:37:52;;;;;;;17.50;8.20;;;7.30;87.80;;;;;;5021607;28;20192;-77
2022/01/08 11:40:22;;;;;;;19.83;9.43;;;7.30;87.50;;;;;;5022678;28;20197;-77
2022/01/08 11:42:53;;;;;;;15.60;8.73;;;7.30;87.10;;;;;;5020639;28;20185;-77
2022/01/08 11:45:26;;;;;;;16.87;9.67;;;7.30;88.10;;;;;;5021577;28;20783;-77
2022/01/08 11:47:58;;;;;;;18.50;9.07;;;7.40;87.60;;;;;;5021044;28;20197;-77
2022/01/08 11:50:29;;;;;;;17.27;9.00;;;7.40;87.80;;;;;;5022205;28;20284;-77
2022/01/08 11:53:15;;;;;;;18.07;9.93;;;7.40;87.40;;;;;;5020450;28;20624;-77
2022/01/08 11:55:45;;;;;;;19.57;9.53;;;7.30;88.10;;;;;;5022318;28;20585;-77
2022/01/08 11:58:23;;;;;;;17.40;9.33;;;7.40;87.70;;;;;;5021650;28;20200;-77
2022/01/08 12:00:57;;;;;;;16.13;9.50;;;7.40;87.50;;;;;;5022562;28;20247;-78
2022/01/08 12:03:32;;;;;;;16.97;9.07;;;7.40;87.40;;;;;;5025896;28;20207;-77
2022/01/08 12:06:32;;;;;;;18.17;8.50;;;7.40;87.80;;;;;;5024401;28;20193;-77
2022/01/08 12:09:18;;;;;;;16.93;9.17;;;7.40;87.40;;;;;;5024414;28;20194;-77
2022/01/08 12:11:55;;;;;;;18.00;10.40;;;7.40;87.50;;;;;;5024911;28;20220;-77
2022/01/08 12:14:27;;;;;;;19.50;9.70;;;7.40;87.20;;;;;;5019100;28;20624;-78
2022/01/08 12:16:56;;;;;;;20.17;9.17;;;7.40;87.70;;;;;;5024890;28;20189;-77
2022/01/08 12:19:33;;;;;;;16.17;8.87;;;7.40;87.40;;;;;;5022926;28;20197;-77
2022/01/08 12:22:22;;;;;;;14.63;7.63;;;7.40;87.30;;;;;;5023342;28;20196;-77
2022/01/08 12:24:52;;;;;;;15.47;9.07;;;7.50;87.20;;;;;;5024160;28;20193;-77
2022/01/08 12:27:23;;;;;;;17.97;10.67;;;7.50;87.90;;;;;;5024790;28;20193;-77
2022/01/08 12:29:53;;;;;;;17.53;9.93;;;7.50;87.70;;;;;;5015736;28;20651;-77
2022/01/08 12:32:28;;;;;;;15.70;8.27;;;7.50;87.90;;;;;;5022680;28;20219;-78
2022/01/08 12:35:22;;;;;;;16.50;8.73;;;7.50;87.40;;;;;;5025701;28;20204;-77
2022/01/08 12:37:52;;;;;;;18.57;8.73;;;7.60;87.50;;;;;;5025137;28;20195;-77
2022/01/08 12:40:36;;;;;;;17.20;9.80;;;7.50;87.70;;;;;;5024473;28;20863;-77
2022/01/08 12:43:31;;;;;;;19.97;10.10;;;7.60;87.50;;;;;;5023209;28;20622;-78
2022/01/08 12:46:18;;;;;;;12.87;8.53;;;7.60;87.30;;;;;;5020222;28;20196;-78
2022/01/08 12:49:12;;;;;;;19.30;10.23;;;7.70;87.20;;;;;;5024595;28;20196;-78
2022/01/08 12:51:51;;;;;;;17.10;8.80;;;7.70;87.20;;;;;;5016148;28;20193;-78
2022/01/08 12:54:22;;;;;;;16.47;9.10;;;7.70;87.10;;;;;;5020697;28;20221;-79
2022/01/08 12:56:51;;;;;;;16.90;8.53;;;7.70;87.10;;;;;;5018715;28;20193;-78
2022/01/08 12:59:21;;;;;;;17.70;10.20;;;7.70;87.10;;;;;;5023789;28;20893;-77
2022/01/08 13:01:52;;;;;;;16.83;9.23;;;7.70;87.60;;;;;;5020927;28;20205;-78
2022/01/08 13:04:22;;;;;;;17.70;8.33;;;7.70;87.60;;;;;;5023864;28;20198;-78
2022/01/08 13:06:51;;;;;;;13.70;8.33;;;7.70;87.60;;;;;;5024459;28;20224;-78
2022/01/08 13:09:20;;;;;;;15.83;8.50;;;7.70;87.40;;;;;;5023484;28;20198;-78
2022/01/08 13:11:48;;;;;;;17.53;8.40;;;7.70;87.50;;;;;;5022324;28;20228;-76
2022/01/08 13:14:19;;;;;;;19.20;8.53;;;7.70;88.00;;;;;;5024388;28;20214;-76
2022/01/08 13:16:51;;;;;;;16.43;8.40;;;7.70;88.10;;;;;;5026212;28;20878;-78
2022/01/08 13:19:21;;;;;;;14.80;8.47;;;7.60;88.00;;;;;;5024580;28;20248;-76
2022/01/08 13:21:52;;;;;;;15.20;7.97;;;7.60;87.80;;;;;;5024888;28;20249;-76
2022/01/08 13:24:22;;;;;;;14.90;7.73;;;7.60;88.20;;;;;;5022860;28;20209;-76